sensor_id;sensor_type;location;lat;lon;timestamp;P1;durP1;ratioP1;P2;durP2;ratioP2
3875;SDS011;1953;51.222;6.624;2023-06-10T00:02:19;15.90;;;14.20;;
3875;SDS011;1953;51.222;6.624;2023-06-10T00:07:05;14.80;;;12.70;;
3875;SDS011;1953;51.222;6.624;2023-06-10T00:12:57;15.77;;;13.33;;
3875;SDS011;1953;51.222;6.624;2023-06-10T00:17:40;14.40;;;13.10;;
3875;SDS011;1953;51.222;6.624;2023-06-10T00:22:23;15.13;;;12.23;;
3875;SDS011;1953;51.222;6.624;2023-06-10T00:27:10;16.23;;;13.00;;
3875;SDS011;1953;51.222;6.624;2023-06-10T00:31:54;15.07;;;13.47;;
3875;SDS011;1953;51.222;6.624;2023-06-10T00:36:38;14.27;;;12.97;;
3875;SDS011;1953;51.222;6.624;2023-06-10T00:41:20;14.97;;;13.50;;
3875;SDS011;1953;51.222;6.624;2023-06-10T00:46:03;14.40;;;12.90;;
3875;SDS011;1953;51.222;6.624;2023-06-10T00:50:47;15.10;;;13.53;;
3875;SDS011;1953;51.222;6.624;2023-06-10T00:55:30;14.60;;;13.20;;
3875;SDS011;1953;51.222;6.624;2023-06-10T01:00:14;15.20;;;13.70;;
3875;SDS011;1953;51.222;6.624;2023-06-10T01:04:58;15.20;;;12.60;;
3875;SDS011;1953;51.222;6.624;2023-06-10T01:09:45;26.60;;;14.30;;
3875;SDS011;1953;51.222;6.624;2023-06-10T01:14:35;14.83;;;13.17;;
3875;SDS011;1953;51.222;6.624;2023-06-10T01:19:19;24.97;;;14.13;;
3875;SDS011;1953;51.222;6.624;2023-06-10T01:24:06;16.67;;;13.60;;
3875;SDS011;1953;51.222;6.624;2023-06-10T01:28:52;16.60;;;12.97;;
3875;SDS011;1953;51.222;6.624;2023-06-10T01:33:47;16.67;;;14.93;;
3875;SDS011;1953;51.222;6.624;2023-06-10T01:38:38;16.27;;;14.30;;
3875;SDS011;1953;51.222;6.624;2023-06-10T01:43:25;15.80;;;14.30;;
3875;SDS011;1953;51.222;6.624;2023-06-10T01:48:08;16.23;;;14.50;;
3875;SDS011;1953;51.222;6.624;2023-06-10T01:52:50;20.53;;;14.40;;
3875;SDS011;1953;51.222;6.624;2023-06-10T01:57:33;16.23;;;14.53;;
3875;SDS011;1953;51.222;6.624;2023-06-10T02:02:16;16.20;;;14.50;;
3875;SDS011;1953;51.222;6.624;2023-06-10T02:06:59;18.50;;;15.57;;
3875;SDS011;1953;51.222;6.624;2023-06-10T02:11:44;20.43;;;15.73;;
3875;SDS011;1953;51.222;6.624;2023-06-10T02:16:26;16.27;;;14.53;;
3875;SDS011;1953;51.222;6.624;2023-06-10T02:21:10;15.70;;;14.10;;
3875;SDS011;1953;51.222;6.624;2023-06-10T02:25:53;16.67;;;14.77;;
3875;SDS011;1953;51.222;6.624;2023-06-10T02:30:38;16.10;;;14.57;;
3875;SDS011;1953;51.222;6.624;2023-06-10T02:35:21;16.10;;;14.37;;
3875;SDS011;1953;51.222;6.624;2023-06-10T02:40:07;16.77;;;14.60;;
3875;SDS011;1953;51.222;6.624;2023-06-10T02:44:50;18.83;;;14.87;;
3875;SDS011;1953;51.222;6.624;2023-06-10T02:49:33;17.50;;;14.73;;
3875;SDS011;1953;51.222;6.624;2023-06-10T02:54:16;17.03;;;14.33;;
3875;SDS011;1953;51.222;6.624;2023-06-10T02:59:01;17.13;;;15.30;;
3875;SDS011;1953;51.222;6.624;2023-06-10T03:03:44;18.43;;;16.60;;
3875;SDS011;1953;51.222;6.624;2023-06-10T03:08:27;16.43;;;14.73;;
3875;SDS011;1953;51.222;6.624;2023-06-10T03:13:09;15.90;;;14.30;;
3875;SDS011;1953;51.222;6.624;2023-06-10T03:17:53;16.57;;;14.80;;
3875;SDS011;1953;51.222;6.624;2023-06-10T03:22:36;16.33;;;14.53;;
3875;SDS011;1953;51.222;6.624;2023-06-10T03:27:19;17.77;;;15.33;;
3875;SDS011;1953;51.222;6.624;2023-06-10T03:32:02;17.00;;;14.70;;
3875;SDS011;1953;51.222;6.624;2023-06-10T03:36:46;18.30;;;14.83;;
3875;SDS011;1953;51.222;6.624;2023-06-10T03:41:29;17.00;;;15.20;;
3875;SDS011;1953;51.222;6.624;2023-06-10T03:46:12;17.90;;;16.00;;
3875;SDS011;1953;51.222;6.624;2023-06-10T03:50:57;18.17;;;16.37;;
3875;SDS011;1953;51.222;6.624;2023-06-10T03:55:41;18.50;;;16.10;;
3875;SDS011;1953;51.222;6.624;2023-06-10T04:00:24;20.93;;;15.00;;
3875;SDS011;1953;51.222;6.624;2023-06-10T04:05:06;23.97;;;15.23;;
3875;SDS011;1953;51.222;6.624;2023-06-10T04:09:49;18.43;;;15.63;;
3875;SDS011;1953;51.222;6.624;2023-06-10T04:14:33;18.07;;;16.13;;
3875;SDS011;1953;51.222;6.624;2023-06-10T04:19:17;23.47;;;15.40;;
3875;SDS011;1953;51.222;6.624;2023-06-10T04:24:00;22.20;;;16.40;;
3875;SDS011;1953;51.222;6.624;2023-06-10T04:28:43;18.40;;;16.47;;
3875;SDS011;1953;51.222;6.624;2023-06-10T04:33:27;18.10;;;15.83;;
3875;SDS011;1953;51.222;6.624;2023-06-10T04:38:10;16.97;;;15.13;;
3875;SDS011;1953;51.222;6.624;2023-06-10T04:42:53;16.20;;;14.47;;
3875;SDS011;1953;51.222;6.624;2023-06-10T04:47:35;18.70;;;15.60;;
3875;SDS011;1953;51.222;6.624;2023-06-10T04:52:20;17.90;;;16.10;;
3875;SDS011;1953;51.222;6.624;2023-06-10T04:57:03;19.10;;;16.00;;
3875;SDS011;1953;51.222;6.624;2023-06-10T05:01:46;17.93;;;16.03;;
3875;SDS011;1953;51.222;6.624;2023-06-10T05:06:29;20.73;;;15.37;;
3875;SDS011;1953;51.222;6.624;2023-06-10T05:11:13;16.70;;;15.00;;
3875;SDS011;1953;51.222;6.624;2023-06-10T05:15:55;17.63;;;15.83;;
3875;SDS011;1953;51.222;6.624;2023-06-10T05:20:38;19.00;;;15.23;;
3875;SDS011;1953;51.222;6.624;2023-06-10T05:25:22;19.40;;;15.57;;
3875;SDS011;1953;51.222;6.624;2023-06-10T05:30:06;17.23;;;15.03;;
3875;SDS011;1953;51.222;6.624;2023-06-10T05:34:51;18.07;;;15.10;;
3875;SDS011;1953;51.222;6.624;2023-06-10T05:39:34;17.20;;;15.40;;
3875;SDS011;1953;51.222;6.624;2023-06-10T05:44:19;17.40;;;15.23;;
3875;SDS011;1953;51.222;6.624;2023-06-10T05:49:03;17.53;;;15.77;;
3875;SDS011;1953;51.222;6.624;2023-06-10T05:53:46;21.50;;;15.30;;
3875;SDS011;1953;51.222;6.624;2023-06-10T05:58:29;19.13;;;14.90;;
3875;SDS011;1953;51.222;6.624;2023-06-10T06:03:11;15.73;;;14.10;;
3875;SDS011;1953;51.222;6.624;2023-06-10T06:07:55;17.50;;;14.33;;
3875;SDS011;1953;51.222;6.624;2023-06-10T06:12:38;16.37;;;14.80;;
3875;SDS011;1953;51.222;6.624;2023-06-10T06:17:20;16.97;;;14.93;;
3875;SDS011;1953;51.222;6.624;2023-06-10T06:22:03;14.77;;;13.23;;
3875;SDS011;1953;51.222;6.624;2023-06-10T06:26:47;17.30;;;13.80;;
3875;SDS011;1953;51.222;6.624;2023-06-10T06:31:30;16.33;;;13.90;;
3875;SDS011;1953;51.222;6.624;2023-06-10T06:36:13;17.80;;;14.50;;
3875;SDS011;1953;51.222;6.624;2023-06-10T06:40:55;15.70;;;13.87;;
3875;SDS011;1953;51.222;6.624;2023-06-10T06:45:44;15.03;;;13.40;;
3875;SDS011;1953;51.222;6.624;2023-06-10T06:50:27;15.37;;;13.77;;
3875;SDS011;1953;51.222;6.624;2023-06-10T06:55:10;19.07;;;13.50;;
3875;SDS011;1953;51.222;6.624;2023-06-10T06:59:52;15.07;;;13.43;;
3875;SDS011;1953;51.222;6.624;2023-06-10T07:04:36;14.40;;;12.90;;
3875;SDS011;1953;51.222;6.624;2023-06-10T07:09:23;15.30;;;13.43;;
3875;SDS011;1953;51.222;6.624;2023-06-10T07:14:06;16.80;;;13.20;;
3875;SDS011;1953;51.222;6.624;2023-06-10T07:18:48;16.40;;;13.23;;
3875;SDS011;1953;51.222;6.624;2023-06-10T07:23:32;14.17;;;12.67;;
3875;SDS011;1953;51.222;6.624;2023-06-10T07:28:15;14.60;;;12.87;;
3875;SDS011;1953;51.222;6.624;2023-06-10T07:32:57;14.50;;;12.47;;
3875;SDS011;1953;51.222;6.624;2023-06-10T07:37:40;13.83;;;12.40;;
3875;SDS011;1953;51.222;6.624;2023-06-10T07:42:24;13.80;;;12.03;;
3875;SDS011;1953;51.222;6.624;2023-06-10T07:47:06;13.23;;;11.83;;
3875;SDS011;1953;51.222;6.624;2023-06-10T07:51:49;13.90;;;12.60;;
3875;SDS011;1953;51.222;6.624;2023-06-10T07:56:32;16.30;;;11.90;;
3875;SDS011;1953;51.222;6.624;2023-06-10T08:01:16;13.50;;;12.10;;
3875;SDS011;1953;51.222;6.624;2023-06-10T08:05:58;16.67;;;12.60;;
3875;SDS011;1953;51.222;6.624;2023-06-10T08:10:41;14.37;;;11.87;;
3875;SDS011;1953;51.222;6.624;2023-06-10T08:15:24;12.03;;;10.93;;
3875;SDS011;1953;51.222;6.624;2023-06-10T08:20:08;13.83;;;12.43;;
3875;SDS011;1953;51.222;6.624;2023-06-10T08:24:51;15.17;;;12.40;;
3875;SDS011;1953;51.222;6.624;2023-06-10T08:29:33;14.00;;;12.67;;
3875;SDS011;1953;51.222;6.624;2023-06-10T08:34:16;13.03;;;11.30;;
3875;SDS011;1953;51.222;6.624;2023-06-10T08:39:00;15.40;;;12.47;;
3875;SDS011;1953;51.222;6.624;2023-06-10T08:43:44;18.67;;;12.67;;
3875;SDS011;1953;51.222;6.624;2023-06-10T08:48:30;13.03;;;11.13;;
3875;SDS011;1953;51.222;6.624;2023-06-10T08:53:15;13.20;;;11.87;;
3875;SDS011;1953;51.222;6.624;2023-06-10T08:58:02;12.97;;;11.67;;
3875;SDS011;1953;51.222;6.624;2023-06-10T09:02:45;12.83;;;11.67;;
3875;SDS011;1953;51.222;6.624;2023-06-10T09:07:29;13.70;;;12.40;;
3875;SDS011;1953;51.222;6.624;2023-06-10T09:12:15;12.70;;;11.50;;
3875;SDS011;1953;51.222;6.624;2023-06-10T09:16:59;19.20;;;11.97;;
3875;SDS011;1953;51.222;6.624;2023-06-10T09:21:41;14.17;;;12.87;;
3875;SDS011;1953;51.222;6.624;2023-06-10T09:26:27;13.70;;;11.63;;
3875;SDS011;1953;51.222;6.624;2023-06-10T09:31:11;16.40;;;11.60;;
3875;SDS011;1953;51.222;6.624;2023-06-10T09:35:56;13.50;;;11.90;;
3875;SDS011;1953;51.222;6.624;2023-06-10T09:40:51;13.03;;;11.60;;
3875;SDS011;1953;51.222;6.624;2023-06-10T09:45:35;15.23;;;11.40;;
3875;SDS011;1953;51.222;6.624;2023-06-10T09:50:18;12.83;;;11.63;;
3875;SDS011;1953;51.222;6.624;2023-06-10T09:55:02;11.70;;;10.70;;
3875;SDS011;1953;51.222;6.624;2023-06-10T09:59:45;12.30;;;11.10;;
3875;SDS011;1953;51.222;6.624;2023-06-10T10:04:28;12.00;;;10.90;;
3875;SDS011;1953;51.222;6.624;2023-06-10T10:09:10;12.43;;;11.23;;
3875;SDS011;1953;51.222;6.624;2023-06-10T10:13:54;14.77;;;10.57;;
3875;SDS011;1953;51.222;6.624;2023-06-10T10:18:38;13.70;;;10.37;;
3875;SDS011;1953;51.222;6.624;2023-06-10T10:23:24;12.10;;;11.00;;
3875;SDS011;1953;51.222;6.624;2023-06-10T10:28:23;11.70;;;10.60;;
3875;SDS011;1953;51.222;6.624;2023-06-10T10:33:12;11.13;;;9.93;;
3875;SDS011;1953;51.222;6.624;2023-06-10T10:37:57;11.27;;;10.18;;
3875;SDS011;1953;51.222;6.624;2023-06-10T10:42:40;10.93;;;9.82;;
3875;SDS011;1953;51.222;6.624;2023-06-10T10:47:25;11.07;;;9.98;;
3875;SDS011;1953;51.222;6.624;2023-06-10T10:52:12;11.85;;;10.85;;
3875;SDS011;1953;51.222;6.624;2023-06-10T10:57:10;11.88;;;10.02;;
3875;SDS011;1953;51.222;6.624;2023-06-10T11:01:54;11.32;;;9.57;;
3875;SDS011;1953;51.222;6.624;2023-06-10T11:06:40;11.10;;;10.20;;
3875;SDS011;1953;51.222;6.624;2023-06-10T11:11:35;13.25;;;9.48;;
3875;SDS011;1953;51.222;6.624;2023-06-10T11:16:38;10.30;;;9.50;;
3875;SDS011;1953;51.222;6.624;2023-06-10T11:21:23;11.57;;;9.20;;
3875;SDS011;1953;51.222;6.624;2023-06-10T11:26:19;9.52;;;8.82;;
3875;SDS011;1953;51.222;6.624;2023-06-10T11:31:19;9.43;;;8.63;;
3875;SDS011;1953;51.222;6.624;2023-06-10T11:36:06;10.15;;;9.10;;
3875;SDS011;1953;51.222;6.624;2023-06-10T11:40:48;9.90;;;8.73;;
3875;SDS011;1953;51.222;6.624;2023-06-10T11:45:31;9.25;;;8.55;;
3875;SDS011;1953;51.222;6.624;2023-06-10T11:50:15;10.85;;;8.65;;
3875;SDS011;1953;51.222;6.624;2023-06-10T11:55:10;10.93;;;9.25;;
3875;SDS011;1953;51.222;6.624;2023-06-10T11:59:52;9.07;;;8.32;;
3875;SDS011;1953;51.222;6.624;2023-06-10T12:04:35;11.13;;;10.10;;
3875;SDS011;1953;51.222;6.624;2023-06-10T12:13:58;10.40;;;9.20;;
3875;SDS011;1953;51.222;6.624;2023-06-10T12:18:42;11.60;;;8.68;;
3875;SDS011;1953;51.222;6.624;2023-06-10T12:23:26;9.77;;;8.88;;
3875;SDS011;1953;51.222;6.624;2023-06-10T12:28:10;9.63;;;8.82;;
3875;SDS011;1953;51.222;6.624;2023-06-10T12:32:54;10.30;;;9.40;;
3875;SDS011;1953;51.222;6.624;2023-06-10T12:37:37;12.25;;;8.57;;
3875;SDS011;1953;51.222;6.624;2023-06-10T12:42:21;10.32;;;9.20;;
3875;SDS011;1953;51.222;6.624;2023-06-10T12:47:07;10.02;;;9.05;;
3875;SDS011;1953;51.222;6.624;2023-06-10T12:51:54;10.90;;;9.95;;
3875;SDS011;1953;51.222;6.624;2023-06-10T12:56:36;9.43;;;8.68;;
3875;SDS011;1953;51.222;6.624;2023-06-10T13:01:19;10.32;;;9.40;;
3875;SDS011;1953;51.222;6.624;2023-06-10T13:06:02;11.45;;;9.88;;
3875;SDS011;1953;51.222;6.624;2023-06-10T13:10:47;10.60;;;9.50;;
3875;SDS011;1953;51.222;6.624;2023-06-10T13:15:30;11.77;;;9.50;;
3875;SDS011;1953;51.222;6.624;2023-06-10T13:20:13;10.30;;;9.40;;
3875;SDS011;1953;51.222;6.624;2023-06-10T13:24:56;11.60;;;10.50;;
3875;SDS011;1953;51.222;6.624;2023-06-10T13:29:40;10.93;;;9.93;;
3875;SDS011;1953;51.222;6.624;2023-06-10T13:34:22;10.70;;;9.73;;
3875;SDS011;1953;51.222;6.624;2023-06-10T13:39:05;10.52;;;9.52;;
3875;SDS011;1953;51.222;6.624;2023-06-10T13:43:49;9.88;;;9.07;;
3875;SDS011;1953;51.222;6.624;2023-06-10T13:48:33;9.80;;;9.10;;
3875;SDS011;1953;51.222;6.624;2023-06-10T13:53:16;10.13;;;8.93;;
3875;SDS011;1953;51.222;6.624;2023-06-10T13:57:58;9.45;;;8.65;;
3875;SDS011;1953;51.222;6.624;2023-06-10T14:02:40;9.20;;;8.30;;
3875;SDS011;1953;51.222;6.624;2023-06-10T14:07:24;8.98;;;8.38;;
3875;SDS011;1953;51.222;6.624;2023-06-10T14:12:08;9.40;;;8.70;;
3875;SDS011;1953;51.222;6.624;2023-06-10T14:16:52;9.63;;;8.65;;
3875;SDS011;1953;51.222;6.624;2023-06-10T14:21:34;9.13;;;8.43;;
3875;SDS011;1953;51.222;6.624;2023-06-10T14:26:18;9.98;;;9.13;;
3875;SDS011;1953;51.222;6.624;2023-06-10T14:31:02;12.73;;;8.95;;
3875;SDS011;1953;51.222;6.624;2023-06-10T14:35:45;9.80;;;8.95;;
3875;SDS011;1953;51.222;6.624;2023-06-10T14:40:28;8.82;;;8.20;;
3875;SDS011;1953;51.222;6.624;2023-06-10T14:45:12;9.32;;;8.48;;
3875;SDS011;1953;51.222;6.624;2023-06-10T14:49:55;9.25;;;8.45;;
3875;SDS011;1953;51.222;6.624;2023-06-10T14:54:38;9.13;;;8.30;;
3875;SDS011;1953;51.222;6.624;2023-06-10T14:59:20;8.93;;;8.32;;
3875;SDS011;1953;51.222;6.624;2023-06-10T15:04:04;9.60;;;8.52;;
3875;SDS011;1953;51.222;6.624;2023-06-10T15:08:47;9.93;;;9.02;;
3875;SDS011;1953;51.222;6.624;2023-06-10T15:13:30;9.65;;;8.73;;
3875;SDS011;1953;51.222;6.624;2023-06-10T15:18:12;9.45;;;8.63;;
3875;SDS011;1953;51.222;6.624;2023-06-10T15:22:56;9.10;;;8.27;;
3875;SDS011;1953;51.222;6.624;2023-06-10T15:27:39;9.50;;;8.50;;
3875;SDS011;1953;51.222;6.624;2023-06-10T15:32:21;8.48;;;7.82;;
3875;SDS011;1953;51.222;6.624;2023-06-10T15:37:04;8.18;;;7.57;;
3875;SDS011;1953;51.222;6.624;2023-06-10T15:41:48;7.78;;;7.13;;
3875;SDS011;1953;51.222;6.624;2023-06-10T15:46:30;7.75;;;7.25;;
3875;SDS011;1953;51.222;6.624;2023-06-10T15:51:14;6.93;;;6.50;;
3875;SDS011;1953;51.222;6.624;2023-06-10T15:55:57;7.40;;;6.80;;
3875;SDS011;1953;51.222;6.624;2023-06-10T16:00:41;7.15;;;6.55;;
3875;SDS011;1953;51.222;6.624;2023-06-10T16:05:23;6.78;;;6.28;;
3875;SDS011;1953;51.222;6.624;2023-06-10T16:10:06;5.88;;;5.57;;
3875;SDS011;1953;51.222;6.624;2023-06-10T16:14:49;6.60;;;6.30;;
3875;SDS011;1953;51.222;6.624;2023-06-10T16:19:33;6.78;;;6.20;;
3875;SDS011;1953;51.222;6.624;2023-06-10T16:24:15;6.38;;;5.97;;
3875;SDS011;1953;51.222;6.624;2023-06-10T16:28:58;7.53;;;6.93;;
3875;SDS011;1953;51.222;6.624;2023-06-10T16:33:40;6.75;;;6.30;;
3875;SDS011;1953;51.222;6.624;2023-06-10T16:38:24;6.55;;;6.07;;
3875;SDS011;1953;51.222;6.624;2023-06-10T16:43:07;6.68;;;6.18;;
3875;SDS011;1953;51.222;6.624;2023-06-10T16:47:49;7.78;;;6.97;;
3875;SDS011;1953;51.222;6.624;2023-06-10T16:52:32;8.05;;;6.43;;
3875;SDS011;1953;51.222;6.624;2023-06-10T16:57:16;7.82;;;6.75;;
3875;SDS011;1953;51.222;6.624;2023-06-10T17:01:58;7.38;;;6.65;;
3875;SDS011;1953;51.222;6.624;2023-06-10T17:06:41;7.80;;;6.72;;
3875;SDS011;1953;51.222;6.624;2023-06-10T17:11:23;7.22;;;6.50;;
3875;SDS011;1953;51.222;6.624;2023-06-10T17:16:07;7.50;;;6.80;;
3875;SDS011;1953;51.222;6.624;2023-06-10T17:20:50;6.78;;;6.38;;
3875;SDS011;1953;51.222;6.624;2023-06-10T17:25:32;6.13;;;5.72;;
3875;SDS011;1953;51.222;6.624;2023-06-10T17:30:16;6.82;;;6.25;;
3875;SDS011;1953;51.222;6.624;2023-06-10T17:35:00;7.05;;;6.55;;
3875;SDS011;1953;51.222;6.624;2023-06-10T17:39:43;10.32;;;6.85;;
3875;SDS011;1953;51.222;6.624;2023-06-10T17:44:25;7.20;;;6.22;;
3875;SDS011;1953;51.222;6.624;2023-06-10T17:49:09;7.07;;;6.57;;
3875;SDS011;1953;51.222;6.624;2023-06-10T17:53:53;8.23;;;7.50;;
3875;SDS011;1953;51.222;6.624;2023-06-10T17:58:35;6.82;;;6.35;;
3875;SDS011;1953;51.222;6.624;2023-06-10T18:03:18;7.53;;;6.82;;
3875;SDS011;1953;51.222;6.624;2023-06-10T18:08:06;7.82;;;7.28;;
3875;SDS011;1953;51.222;6.624;2023-06-10T18:12:50;6.85;;;6.20;;
3875;SDS011;1953;51.222;6.624;2023-06-10T18:17:33;12.70;;;7.13;;
3875;SDS011;1953;51.222;6.624;2023-06-10T18:22:16;11.10;;;6.90;;
3875;SDS011;1953;51.222;6.624;2023-06-10T18:26:58;6.95;;;6.45;;
3875;SDS011;1953;51.222;6.624;2023-06-10T18:31:43;11.10;;;6.57;;
3875;SDS011;1953;51.222;6.624;2023-06-10T18:36:25;7.32;;;6.70;;
3875;SDS011;1953;51.222;6.624;2023-06-10T18:41:08;7.57;;;6.97;;
3875;SDS011;1953;51.222;6.624;2023-06-10T18:45:50;7.47;;;6.88;;
3875;SDS011;1953;51.222;6.624;2023-06-10T18:50:34;8.55;;;7.85;;
3875;SDS011;1953;51.222;6.624;2023-06-10T18:55:17;11.73;;;7.15;;
3875;SDS011;1953;51.222;6.624;2023-06-10T18:59:59;7.78;;;7.18;;
3875;SDS011;1953;51.222;6.624;2023-06-10T19:04:43;8.38;;;7.57;;
3875;SDS011;1953;51.222;6.624;2023-06-10T19:09:26;8.35;;;7.65;;
3875;SDS011;1953;51.222;6.624;2023-06-10T19:14:09;8.68;;;7.97;;
3875;SDS011;1953;51.222;6.624;2023-06-10T19:18:52;8.90;;;8.00;;
3875;SDS011;1953;51.222;6.624;2023-06-10T19:23:35;8.75;;;7.93;;
3875;SDS011;1953;51.222;6.624;2023-06-10T19:28:19;10.73;;;8.80;;
3875;SDS011;1953;51.222;6.624;2023-06-10T19:33:01;9.23;;;8.52;;
3875;SDS011;1953;51.222;6.624;2023-06-10T19:37:44;8.95;;;8.20;;
3875;SDS011;1953;51.222;6.624;2023-06-10T19:42:26;10.57;;;9.52;;
3875;SDS011;1953;51.222;6.624;2023-06-10T19:47:10;10.27;;;9.25;;
3875;SDS011;1953;51.222;6.624;2023-06-10T19:51:53;12.82;;;8.98;;
3875;SDS011;1953;51.222;6.624;2023-06-10T19:56:35;11.18;;;9.40;;
3875;SDS011;1953;51.222;6.624;2023-06-10T20:01:18;10.20;;;9.20;;
3875;SDS011;1953;51.222;6.624;2023-06-10T20:06:02;10.23;;;9.38;;
3875;SDS011;1953;51.222;6.624;2023-06-10T20:10:44;14.60;;;10.32;;
3875;SDS011;1953;51.222;6.624;2023-06-10T20:15:27;11.55;;;9.90;;
3875;SDS011;1953;51.222;6.624;2023-06-10T20:20:10;11.10;;;10.02;;
3875;SDS011;1953;51.222;6.624;2023-06-10T20:24:55;12.07;;;10.88;;
3875;SDS011;1953;51.222;6.624;2023-06-10T20:29:37;13.68;;;10.40;;
3875;SDS011;1953;51.222;6.624;2023-06-10T20:34:20;13.40;;;10.33;;
3875;SDS011;1953;51.222;6.624;2023-06-10T20:39:03;12.10;;;10.70;;
3875;SDS011;1953;51.222;6.624;2023-06-10T20:43:47;11.63;;;10.53;;
3875;SDS011;1953;51.222;6.624;2023-06-10T20:48:29;14.10;;;10.97;;
3875;SDS011;1953;51.222;6.624;2023-06-10T20:53:12;16.50;;;10.60;;
3875;SDS011;1953;51.222;6.624;2023-06-10T20:57:54;12.87;;;11.67;;
3875;SDS011;1953;51.222;6.624;2023-06-10T21:02:40;12.40;;;11.10;;
3875;SDS011;1953;51.222;6.624;2023-06-10T21:07:23;15.40;;;11.20;;
3875;SDS011;1953;51.222;6.624;2023-06-10T21:12:05;12.33;;;11.00;;
3875;SDS011;1953;51.222;6.624;2023-06-10T21:16:48;15.30;;;11.80;;
3875;SDS011;1953;51.222;6.624;2023-06-10T21:21:32;14.10;;;12.70;;
3875;SDS011;1953;51.222;6.624;2023-06-10T21:26:15;13.33;;;12.00;;
3875;SDS011;1953;51.222;6.624;2023-06-10T21:30:57;12.57;;;11.27;;
3875;SDS011;1953;51.222;6.624;2023-06-10T21:35:40;15.13;;;11.30;;
3875;SDS011;1953;51.222;6.624;2023-06-10T21:40:24;12.80;;;11.50;;
3875;SDS011;1953;51.222;6.624;2023-06-10T21:45:07;12.87;;;11.67;;
3875;SDS011;1953;51.222;6.624;2023-06-10T21:49:49;12.73;;;11.37;;
3875;SDS011;1953;51.222;6.624;2023-06-10T21:54:32;16.83;;;11.57;;
3875;SDS011;1953;51.222;6.624;2023-06-10T21:59:16;12.73;;;11.53;;
3875;SDS011;1953;51.222;6.624;2023-06-10T22:04:00;14.63;;;12.40;;
3875;SDS011;1953;51.222;6.624;2023-06-10T22:08:43;15.80;;;11.13;;
3875;SDS011;1953;51.222;6.624;2023-06-10T22:13:25;12.60;;;11.40;;
3875;SDS011;1953;51.222;6.624;2023-06-10T22:18:09;13.87;;;12.50;;
3875;SDS011;1953;51.222;6.624;2023-06-10T22:22:52;13.90;;;12.20;;
3875;SDS011;1953;51.222;6.624;2023-06-10T22:27:35;12.37;;;11.10;;
3875;SDS011;1953;51.222;6.624;2023-06-10T22:32:17;12.50;;;11.30;;
3875;SDS011;1953;51.222;6.624;2023-06-10T22:37:01;16.33;;;11.60;;
3875;SDS011;1953;51.222;6.624;2023-06-10T22:41:44;14.73;;;11.43;;
3875;SDS011;1953;51.222;6.624;2023-06-10T22:46:27;13.43;;;12.20;;
3875;SDS011;1953;51.222;6.624;2023-06-10T22:51:09;13.10;;;11.87;;
3875;SDS011;1953;51.222;6.624;2023-06-10T22:55:53;17.30;;;12.70;;
3875;SDS011;1953;51.222;6.624;2023-06-10T23:00:36;13.63;;;12.00;;
3875;SDS011;1953;51.222;6.624;2023-06-10T23:05:18;15.33;;;13.20;;
3875;SDS011;1953;51.222;6.624;2023-06-10T23:10:01;14.97;;;13.30;;
3875;SDS011;1953;51.222;6.624;2023-06-10T23:14:45;15.40;;;13.80;;
3875;SDS011;1953;51.222;6.624;2023-06-10T23:19:27;14.03;;;12.60;;
3875;SDS011;1953;51.222;6.624;2023-06-10T23:24:10;16.23;;;13.03;;
3875;SDS011;1953;51.222;6.624;2023-06-10T23:28:57;17.07;;;13.33;;
3875;SDS011;1953;51.222;6.624;2023-06-10T23:33:41;17.93;;;13.77;;
3875;SDS011;1953;51.222;6.624;2023-06-10T23:38:24;19.33;;;13.20;;
3875;SDS011;1953;51.222;6.624;2023-06-10T23:43:07;15.10;;;13.50;;
3875;SDS011;1953;51.222;6.624;2023-06-10T23:47:50;16.20;;;13.10;;
3875;SDS011;1953;51.222;6.624;2023-06-10T23:52:34;14.23;;;12.80;;
3875;SDS011;1953;51.222;6.624;2023-06-10T23:57:17;14.67;;;12.50;;
